Aviation Digital Data Service (ADDS)

Output produced by METARs form (1858 UTC 21 November 2014)
found at http://aviationweather.gov/adds/metars/
 
KGON 211727Z 2118/2218 31017G26KT P6SM FEW050 
     FM212200 31013G21KT P6SM SKC 
     FM220100 31010KT P6SM SKC 
     FM220700 27007KT P6SM FEW100 
     FM221400 24011G17KT P6SM BKN250